Time;durP1;ratioP1;P1;durP2;ratioP2;P2;SDS_P1;SDS_P2;PMS_P1;PMS_P2;Temp;Humidity;BMP_temperature;BMP_pressure;BME280_temperature;BME280_humidity;BME280_pressure;Samples;Min_cycle;Max_cycle;Signal;HPM_P1;HPM_P2
2021/09/03 00:00:32;;;;;;;52.10;25.95;;;12.90;99.90;;;;;;4975802;28;20072;-85
2021/09/03 00:02:58;;;;;;;53.47;24.88;;;12.90;99.90;;;;;;4979064;28;20053;-85
2021/09/03 00:05:25;;;;;;;50.55;25.17;;;12.90;99.90;;;;;;4972787;28;20050;-84
2021/09/03 00:07:51;;;;;;;39.25;23.52;;;12.90;99.90;;;;;;4977646;28;20396;-85
2021/09/03 00:10:19;;;;;;;44.30;23.20;;;12.90;99.90;;;;;;4981090;28;20037;-83
2021/09/03 00:12:45;;;;;;;51.78;24.98;;;12.90;99.90;;;;;;4998499;28;20121;-85
2021/09/03 00:15:14;;;;;;;45.22;24.92;;;12.90;99.90;;;;;;4990563;28;20073;-84
2021/09/03 00:17:40;;;;;;;47.35;24.58;;;12.90;99.90;;;;;;4985865;28;20042;-84
2021/09/03 00:20:08;;;;;;;42.10;22.75;;;12.90;99.90;;;;;;4992370;28;20501;-86
2021/09/03 00:22:34;;;;;;;43.80;23.77;;;12.90;99.90;;;;;;4985769;28;20544;-85
2021/09/03 00:25:00;;;;;;;42.38;23.02;;;12.90;99.90;;;;;;4980884;28;20046;-85
2021/09/03 00:27:26;;;;;;;47.60;22.55;;;12.80;99.90;;;;;;4991054;28;20041;-85
2021/09/03 00:29:51;;;;;;;46.05;23.48;;;12.80;99.90;;;;;;4980151;28;21529;-85
2021/09/03 00:32:17;;;;;;;49.92;22.85;;;12.80;99.90;;;;;;4975670;28;20378;-85
2021/09/03 00:34:43;;;;;;;43.90;22.63;;;12.80;99.90;;;;;;4972648;28;20041;-86
2021/09/03 00:37:09;;;;;;;40.55;21.40;;;12.70;99.90;;;;;;4992510;28;20037;-85
2021/09/03 00:39:34;;;;;;;41.55;22.75;;;12.80;99.90;;;;;;4993724;28;20049;-86
2021/09/03 00:42:00;;;;;;;43.47;22.45;;;12.70;99.90;;;;;;4977333;28;20037;-85
2021/09/03 00:44:26;;;;;;;42.65;21.42;;;12.70;99.90;;;;;;4966562;28;20069;-85
2021/09/03 00:46:52;;;;;;;38.83;21.27;;;12.70;99.90;;;;;;4969785;28;20492;-85
2021/09/03 00:49:17;;;;;;;37.45;21.20;;;12.70;99.90;;;;;;4973131;28;20034;-85
2021/09/03 00:51:44;;;;;;;40.38;22.48;;;12.60;99.90;;;;;;4993355;28;20532;-85
2021/09/03 00:54:10;;;;;;;38.97;21.42;;;12.60;99.90;;;;;;4972482;28;20068;-86
2021/09/03 00:56:36;;;;;;;40.33;21.77;;;12.60;99.90;;;;;;4975075;28;20109;-85
2021/09/03 00:59:02;;;;;;;38.50;20.80;;;12.60;99.90;;;;;;4996664;28;20493;-86
2021/09/03 01:01:27;;;;;;;40.30;20.40;;;12.60;99.90;;;;;;4974614;28;20129;-85
2021/09/03 01:03:53;;;;;;;40.85;21.45;;;12.60;99.90;;;;;;4971306;28;20117;-85
2021/09/03 01:06:20;;;;;;;39.90;21.33;;;12.60;99.90;;;;;;4979120;28;20037;-84
2021/09/03 01:08:46;;;;;;;44.83;21.73;;;12.60;99.90;;;;;;4978819;28;20525;-85
2021/09/03 01:11:12;;;;;;;41.90;22.15;;;12.50;99.90;;;;;;4983652;28;20069;-84
2021/09/03 01:13:38;;;;;;;35.75;20.35;;;12.60;99.90;;;;;;4974397;28;20045;-85
2021/09/03 01:16:04;;;;;;;35.20;20.30;;;12.60;99.90;;;;;;4972722;28;20345;-85
2021/09/03 01:18:29;;;;;;;36.65;20.33;;;12.50;99.90;;;;;;4974491;28;20038;-85
2021/09/03 01:20:55;;;;;;;38.95;20.83;;;12.50;99.90;;;;;;4993357;28;20373;-85
2021/09/03 01:23:21;;;;;;;38.30;21.10;;;12.50;99.90;;;;;;4976754;28;20709;-85
2021/09/03 01:25:47;;;;;;;39.42;21.30;;;12.50;99.90;;;;;;4981675;28;20038;-85
2021/09/03 01:28:13;;;;;;;42.05;21.63;;;12.50;99.90;;;;;;4990314;28;20527;-85
2021/09/03 01:30:38;;;;;;;37.63;20.58;;;12.50;99.90;;;;;;4985409;28;20045;-85
2021/09/03 01:33:04;;;;;;;37.50;21.23;;;12.50;99.90;;;;;;4979439;28;20548;-87
2021/09/03 01:35:30;;;;;;;43.15;23.02;;;12.50;99.90;;;;;;4983307;28;20523;-86
2021/09/03 01:37:56;;;;;;;40.78;22.88;;;12.50;99.90;;;;;;4967239;28;20034;-85
2021/09/03 01:40:22;;;;;;;40.15;20.83;;;12.50;99.90;;;;;;4999797;28;20045;-86
2021/09/03 01:42:48;;;;;;;39.85;20.60;;;12.40;99.90;;;;;;4971219;28;20034;-86
2021/09/03 01:45:13;;;;;;;36.35;20.05;;;12.40;99.90;;;;;;4993068;28;20400;-86
2021/09/03 01:47:39;;;;;;;42.90;21.52;;;12.30;99.90;;;;;;4976909;28;20156;-86
2021/09/03 01:50:06;;;;;;;36.35;19.77;;;12.30;99.90;;;;;;4985776;28;20103;-85
2021/09/03 01:52:32;;;;;;;39.17;19.58;;;12.20;99.90;;;;;;4999087;28;20045;-86
2021/09/03 01:54:58;;;;;;;40.92;18.63;;;12.20;99.90;;;;;;4982867;28;20041;-86
2021/09/03 01:57:24;;;;;;;42.28;21.73;;;12.20;99.90;;;;;;4992430;28;20061;-86
2021/09/03 01:59:49;;;;;;;33.92;20.17;;;12.20;99.90;;;;;;4979034;28;20044;-85
2021/09/03 02:02:15;;;;;;;46.20;21.80;;;12.20;99.90;;;;;;5010772;28;20068;-86
2021/09/03 02:04:41;;;;;;;38.72;20.75;;;12.10;99.90;;;;;;4990703;28;20107;-85
2021/09/03 02:07:06;;;;;;;36.28;20.27;;;12.20;99.90;;;;;;4966433;28;20082;-85
2021/09/03 02:09:32;;;;;;;37.33;20.85;;;12.10;99.90;;;;;;5002012;28;20040;-86
2021/09/03 02:11:58;;;;;;;33.38;19.52;;;12.10;99.90;;;;;;4976998;28;20042;-87
2021/09/03 02:14:24;;;;;;;30.25;16.15;;;12.10;99.90;;;;;;4996759;28;20096;-87
2021/09/03 02:16:49;;;;;;;31.65;16.65;;;12.10;99.90;;;;;;4978853;28;20072;-85
2021/09/03 02:19:15;;;;;;;27.20;16.63;;;12.00;99.90;;;;;;4979640;28;20038;-86
2021/09/03 02:21:41;;;;;;;28.30;15.65;;;12.00;99.90;;;;;;4982972;28;20069;-86
2021/09/03 02:24:07;;;;;;;27.13;15.18;;;11.90;99.90;;;;;;4983310;28;20043;-85
2021/09/03 02:26:33;;;;;;;34.47;18.48;;;11.90;99.90;;;;;;4999846;28;20527;-86
2021/09/03 02:28:59;;;;;;;34.08;19.08;;;11.90;99.90;;;;;;4982226;28;20029;-86
2021/09/03 02:31:25;;;;;;;35.78;19.15;;;11.80;99.90;;;;;;5001230;28;20073;-85
2021/09/03 02:33:50;;;;;;;34.72;18.80;;;11.80;99.90;;;;;;4973020;28;20250;-85
2021/09/03 02:36:16;;;;;;;35.97;19.65;;;11.80;99.90;;;;;;4978958;28;20034;-86
2021/09/03 02:38:43;;;;;;;34.30;18.77;;;11.80;99.90;;;;;;5007688;28;20041;-85
2021/09/03 02:41:09;;;;;;;28.92;18.30;;;11.80;99.90;;;;;;4982869;28;20038;-86
2021/09/03 02:43:35;;;;;;;33.63;17.95;;;11.80;99.90;;;;;;4973965;28;20077;-86
2021/09/03 02:46:01;;;;;;;30.65;16.80;;;11.80;99.90;;;;;;4976848;28;20491;-85
2021/09/03 02:48:27;;;;;;;33.72;17.90;;;11.70;99.90;;;;;;4987399;28;20030;-86
2021/09/03 02:50:52;;;;;;;36.40;18.77;;;11.70;99.90;;;;;;4982952;28;20049;-85
2021/09/03 02:53:18;;;;;;;32.63;17.30;;;11.70;99.90;;;;;;4975348;28;20056;-86
2021/09/03 02:55:44;;;;;;;31.77;17.30;;;11.70;99.90;;;;;;4975458;28;20489;-85
2021/09/03 02:58:10;;;;;;;28.50;16.30;;;11.60;99.90;;;;;;4997033;28;20489;-86
2021/09/03 03:00:35;;;;;;;29.55;17.17;;;11.60;99.90;;;;;;4971343;28;20128;-85
2021/09/03 03:03:01;;;;;;;20.50;12.18;;;11.60;99.90;;;;;;4974665;28;20130;-87
2021/09/03 03:05:27;;;;;;;10.63;8.07;;;11.60;99.90;;;;;;4991737;28;20080;-86
2021/09/03 03:07:53;;;;;;;13.70;8.48;;;11.50;99.90;;;;;;4989859;28;20503;-86
2021/09/03 03:10:18;;;;;;;13.18;8.82;;;11.50;99.90;;;;;;4997127;28;20022;-86
2021/09/03 03:12:46;;;;;;;15.52;9.32;;;11.40;99.90;;;;;;4994202;28;20099;-87
2021/09/03 03:15:12;;;;;;;17.55;9.88;;;11.30;99.90;;;;;;4967720;28;20041;-85
2021/09/03 03:17:38;;;;;;;18.08;9.25;;;11.30;99.90;;;;;;4979851;28;20520;-85
2021/09/03 03:20:04;;;;;;;17.00;10.65;;;11.30;99.90;;;;;;4994512;28;20045;-85
2021/09/03 03:22:30;;;;;;;16.23;10.10;;;11.40;99.90;;;;;;4995018;28;20034;-85
2021/09/03 03:24:56;;;;;;;14.73;9.50;;;11.40;99.90;;;;;;4977708;28;20042;-86
2021/09/03 03:27:21;;;;;;;11.80;7.30;;;11.30;99.90;;;;;;4975652;28;20046;-85
2021/09/03 03:29:47;;;;;;;16.77;9.68;;;11.30;99.90;;;;;;4997738;28;20116;-85
2021/09/03 03:32:13;;;;;;;16.02;10.07;;;11.20;99.90;;;;;;4963112;28;20045;-87
2021/09/03 03:34:39;;;;;;;20.48;10.88;;;11.20;99.90;;;;;;4978918;28;20080;-85
2021/09/03 03:37:04;;;;;;;18.15;10.82;;;11.20;99.90;;;;;;4988484;28;20030;-85
2021/09/03 03:39:30;;;;;;;14.88;8.63;;;11.20;99.90;;;;;;4979514;28;20041;-85
2021/09/03 03:41:56;;;;;;;18.02;10.70;;;11.10;99.90;;;;;;4997322;28;20038;-85
2021/09/03 03:44:22;;;;;;;18.83;10.68;;;11.10;99.90;;;;;;4974689;28;20508;-86
2021/09/03 03:46:47;;;;;;;17.90;10.65;;;11.10;99.90;;;;;;4974990;28;20033;-86
2021/09/03 03:49:13;;;;;;;16.90;8.85;;;11.10;99.90;;;;;;5003321;28;20037;-87
2021/09/03 03:51:39;;;;;;;15.45;8.30;;;11.10;99.90;;;;;;4980073;28;20697;-87
2021/09/03 03:54:05;;;;;;;15.00;8.98;;;11.00;99.90;;;;;;4984299;28;20077;-87
2021/09/03 03:56:31;;;;;;;18.63;10.07;;;11.00;99.90;;;;;;4980372;28;20042;-86
2021/09/03 03:58:56;;;;;;;18.67;11.13;;;11.00;99.90;;;;;;4992263;28;20049;-86
2021/09/03 04:01:22;;;;;;;18.70;11.15;;;11.00;99.90;;;;;;4988464;28;20030;-86
2021/09/03 04:03:48;;;;;;;22.08;12.82;;;11.00;99.90;;;;;;4974495;28;20070;-87
2021/09/03 04:06:14;;;;;;;21.63;12.98;;;11.00;99.90;;;;;;4973890;28;20037;-87
2021/09/03 04:08:39;;;;;;;21.05;11.82;;;11.00;99.90;;;;;;4985542;28;20125;-86
2021/09/03 04:11:05;;;;;;;22.63;12.57;;;11.00;99.90;;;;;;4998555;28;20034;-87
2021/09/03 04:13:31;;;;;;;30.08;16.05;;;11.00;99.90;;;;;;4976928;28;20050;-88
2021/09/03 04:15:57;;;;;;;23.00;12.57;;;11.00;99.90;;;;;;4989008;28;20042;-86
2021/09/03 04:18:23;;;;;;;18.83;12.02;;;11.00;99.90;;;;;;4991394;28;20153;-87
2021/09/03 04:20:48;;;;;;;20.05;11.50;;;11.00;99.90;;;;;;4989246;28;20045;-86
2021/09/03 04:23:14;;;;;;;21.60;12.55;;;10.90;99.90;;;;;;4973723;28;20041;-87
2021/09/03 04:25:40;;;;;;;19.08;12.55;;;10.90;99.90;;;;;;4969966;28;20480;-86
2021/09/03 04:28:06;;;;;;;22.92;14.52;;;10.90;99.90;;;;;;4994715;28;20045;-86
2021/09/03 04:30:32;;;;;;;28.75;15.57;;;10.80;99.90;;;;;;4974719;28;20180;-86
2021/09/03 04:32:57;;;;;;;29.45;14.82;;;10.80;99.90;;;;;;4975095;28;20045;-85
2021/09/03 04:35:23;;;;;;;29.30;14.80;;;10.80;99.90;;;;;;4991370;28;20041;-85
2021/09/03 04:37:50;;;;;;;27.30;15.13;;;10.80;99.90;;;;;;4964898;28;20157;-86
2021/09/03 04:40:18;;;;;;;28.55;14.48;;;10.80;99.90;;;;;;4988389;28;20405;-85
2021/09/03 04:42:44;;;;;;;29.90;14.18;;;10.80;99.90;;;;;;4989452;28;20030;-86
2021/09/03 04:45:11;;;;;;;26.40;14.63;;;10.70;99.90;;;;;;4972259;28;20037;-86
2021/09/03 04:47:37;;;;;;;29.40;14.57;;;10.70;99.90;;;;;;4972976;28;20169;-85
2021/09/03 04:50:05;;;;;;;31.52;15.15;;;10.70;99.90;;;;;;4998422;28;20076;-86
2021/09/03 04:52:31;;;;;;;33.65;15.60;;;10.70;99.90;;;;;;4993005;28;20049;-86
2021/09/03 04:54:57;;;;;;;29.27;15.57;;;10.70;99.90;;;;;;4988782;28;20393;-86
2021/09/03 04:57:23;;;;;;;30.05;14.75;;;10.70;99.90;;;;;;4974326;28;20046;-86
2021/09/03 04:59:48;;;;;;;32.20;16.27;;;10.70;99.90;;;;;;4972455;28;20061;-86
2021/09/03 05:02:14;;;;;;;28.95;15.10;;;10.70;99.90;;;;;;4974688;28;20115;-87
2021/09/03 05:04:40;;;;;;;34.83;17.20;;;10.70;99.90;;;;;;4971630;28;20038;-86
2021/09/03 05:07:06;;;;;;;38.70;17.98;;;10.70;99.90;;;;;;4967833;28;20433;-86
2021/09/03 05:09:32;;;;;;;31.48;17.05;;;10.70;99.90;;;;;;4984160;28;20507;-86
2021/09/03 05:11:57;;;;;;;26.77;15.45;;;10.70;99.90;;;;;;4972929;28;20456;-87
2021/09/03 05:14:23;;;;;;;32.67;17.10;;;10.70;99.90;;;;;;4966716;28;20085;-86
2021/09/03 05:16:49;;;;;;;29.05;16.02;;;10.80;99.90;;;;;;4973805;28;20840;-87
2021/09/03 05:19:14;;;;;;;30.67;17.27;;;10.70;99.90;;;;;;4965780;28;20038;-87
2021/09/03 05:21:40;;;;;;;28.60;15.32;;;10.80;99.90;;;;;;4970470;28;20038;-87
2021/09/03 05:24:06;;;;;;;33.90;17.58;;;10.80;99.90;;;;;;4985979;28;20041;-87
2021/09/03 05:26:32;;;;;;;32.97;17.77;;;10.80;99.90;;;;;;4967892;28;20042;-87
2021/09/03 05:28:58;;;;;;;39.17;20.10;;;10.90;99.90;;;;;;4985159;28;20429;-87
2021/09/03 05:31:26;;;;;;;37.88;18.95;;;10.90;99.90;;;;;;4973846;28;20112;-88
2021/09/03 05:33:51;;;;;;;32.50;17.77;;;10.80;99.90;;;;;;4980350;28;20440;-89
2021/09/03 05:36:17;;;;;;;34.88;19.15;;;10.90;99.90;;;;;;4986316;28;20117;-89
2021/09/03 05:38:43;;;;;;;30.40;17.55;;;10.90;99.90;;;;;;4970574;28;20122;-88
2021/09/03 05:41:08;;;;;;;36.25;18.20;;;10.90;99.90;;;;;;4978222;28;20550;-89
2021/09/03 05:43:34;;;;;;;32.22;16.20;;;10.90;99.90;;;;;;4965954;28;20057;-89
2021/09/03 05:46:01;;;;;;;31.30;15.27;;;10.90;99.90;;;;;;4973772;28;20144;-89
2021/09/03 05:48:27;;;;;;;30.70;14.30;;;10.90;99.90;;;;;;4967263;28;20034;-89
2021/09/03 05:50:52;;;;;;;25.77;13.60;;;10.90;99.90;;;;;;4979452;28;20456;-88
2021/09/03 05:53:18;;;;;;;25.75;13.85;;;11.00;99.90;;;;;;4970612;28;20783;-88
2021/09/03 05:55:44;;;;;;;26.98;13.30;;;10.90;99.90;;;;;;4966049;28;20974;-89
2021/09/03 05:58:10;;;;;;;29.80;13.20;;;11.00;99.90;;;;;;4973022;28;20495;-89
2021/09/03 06:00:35;;;;;;;27.85;13.18;;;10.90;99.90;;;;;;4980239;28;20169;-89
2021/09/03 06:03:01;;;;;;;25.50;12.75;;;11.00;99.90;;;;;;4985426;28;20045;-89
2021/09/03 06:05:27;;;;;;;29.65;13.13;;;10.90;99.90;;;;;;4970616;28;20037;-89
2021/09/03 06:07:53;;;;;;;33.08;15.18;;;11.00;99.90;;;;;;4972276;28;20069;-89
2021/09/03 06:10:19;;;;;;;29.55;14.45;;;11.00;99.90;;;;;;4973629;28;20030;-89
2021/09/03 06:12:44;;;;;;;28.83;14.32;;;11.00;99.90;;;;;;4993175;28;20142;-89
2021/09/03 06:15:11;;;;;;;26.13;14.48;;;11.00;99.90;;;;;;4977814;28;20275;-89
2021/09/03 06:17:37;;;;;;;27.00;14.07;;;11.10;99.90;;;;;;4992019;28;20080;-90
2021/09/03 06:20:07;;;;;;;28.33;14.10;;;11.10;99.90;;;;;;4997728;28;20038;-89
2021/09/03 06:22:33;;;;;;;32.92;14.93;;;11.20;99.90;;;;;;4973400;28;20068;-90
2021/09/03 06:24:59;;;;;;;29.92;13.45;;;11.20;99.90;;;;;;4973689;28;20026;-89
2021/09/03 06:27:24;;;;;;;29.08;14.02;;;11.30;99.90;;;;;;4994334;28;20030;-89
2021/09/03 06:29:53;;;;;;;26.08;13.45;;;11.40;99.90;;;;;;4978400;28;20468;-89
2021/09/03 06:32:22;;;;;;;33.50;14.55;;;11.40;99.90;;;;;;4976911;28;20049;-89
2021/09/03 06:34:53;;;;;;;29.17;16.15;;;11.50;99.90;;;;;;5003380;28;20038;-89
2021/09/03 06:37:20;;;;;;;37.20;19.02;;;11.60;99.90;;;;;;4989660;28;20124;-89
2021/09/03 06:39:47;;;;;;;48.05;22.67;;;11.70;99.90;;;;;;4995186;28;20575;-88
2021/09/03 06:42:14;;;;;;;33.20;17.85;;;11.80;99.90;;;;;;4998166;28;20408;-88
2021/09/03 06:44:40;;;;;;;39.97;21.50;;;11.80;99.90;;;;;;4979933;28;20425;-88
2021/09/03 06:47:06;;;;;;;43.03;21.73;;;11.90;99.90;;;;;;4996455;28;20030;-88
2021/09/03 06:49:33;;;;;;;40.88;21.63;;;12.00;99.90;;;;;;4981335;28;20400;-88
2021/09/03 06:52:00;;;;;;;40.50;20.60;;;12.20;99.90;;;;;;4993096;28;20045;-89
2021/09/03 06:54:26;;;;;;;47.95;21.90;;;12.30;99.90;;;;;;4996159;28;20045;-89
2021/09/03 06:56:51;;;;;;;39.58;20.35;;;12.40;99.90;;;;;;5003017;28;20054;-87
2021/09/03 06:59:17;;;;;;;41.65;20.67;;;12.50;99.90;;;;;;4996930;28;20034;-87
2021/09/03 07:01:43;;;;;;;39.20;21.95;;;12.60;99.90;;;;;;4994606;28;20546;-87
2021/09/03 07:04:09;;;;;;;42.40;22.45;;;12.70;99.90;;;;;;4991214;28;20037;-87
2021/09/03 07:06:35;;;;;;;42.67;22.77;;;12.80;99.90;;;;;;4973499;28;20061;-87
2021/09/03 07:09:04;;;;;;;45.08;22.75;;;12.90;99.90;;;;;;4969899;28;20037;-87
2021/09/03 07:11:31;;;;;;;45.35;22.42;;;13.00;99.90;;;;;;4986845;28;20063;-87
2021/09/03 07:13:56;;;;;;;40.80;21.48;;;13.20;99.90;;;;;;4991701;28;20035;-87
2021/09/03 07:16:22;;;;;;;50.72;22.38;;;13.30;99.90;;;;;;4977258;28;20039;-88
2021/09/03 07:18:48;;;;;;;43.15;21.67;;;13.50;99.90;;;;;;4964702;28;20077;-87
2021/09/03 07:21:13;;;;;;;41.00;22.63;;;13.50;99.90;;;;;;4970850;28;20034;-88
2021/09/03 07:23:39;;;;;;;44.45;22.55;;;13.70;99.90;;;;;;4980217;28;20049;-88
2021/09/03 07:26:05;;;;;;;43.78;24.00;;;13.80;99.90;;;;;;4976835;28;20607;-88
2021/09/03 07:28:31;;;;;;;46.92;23.50;;;13.90;99.90;;;;;;4988421;28;20033;-87
2021/09/03 07:30:56;;;;;;;47.45;24.70;;;14.10;99.90;;;;;;4979752;28;20501;-87
2021/09/03 07:33:22;;;;;;;49.40;23.55;;;14.20;99.90;;;;;;4992931;28;20052;-88
2021/09/03 07:35:48;;;;;;;38.72;20.67;;;14.30;99.90;;;;;;4982519;28;20050;-88
2021/09/03 07:38:15;;;;;;;42.13;20.40;;;14.40;99.90;;;;;;4971187;28;20092;-87
2021/09/03 07:40:41;;;;;;;38.92;18.58;;;14.50;99.90;;;;;;4992775;28;20051;-89
2021/09/03 07:43:07;;;;;;;35.67;19.67;;;14.70;99.90;;;;;;5001798;28;20373;-89
2021/09/03 07:45:38;;;;;;;43.00;20.25;;;14.70;99.90;;;;;;4979973;28;20099;-88
2021/09/03 07:48:05;;;;;;;36.25;18.77;;;14.90;99.90;;;;;;4998714;28;20524;-87
2021/09/03 07:50:35;;;;;;;38.22;19.25;;;15.00;99.90;;;;;;4975262;28;20042;-88
2021/09/03 07:53:05;;;;;;;35.63;17.35;;;15.10;99.90;;;;;;4991654;28;20047;-88
2021/09/03 07:55:31;;;;;;;33.33;17.30;;;15.20;99.90;;;;;;4962614;28;20049;-86
2021/09/03 07:57:57;;;;;;;33.35;16.45;;;15.30;99.90;;;;;;4988961;28;20041;-87
2021/09/03 08:00:22;;;;;;;36.47;17.55;;;15.40;99.90;;;;;;5024869;28;20567;-88
2021/09/03 08:02:48;;;;;;;29.88;15.65;;;15.50;99.90;;;;;;4981123;28;20394;-89
2021/09/03 08:05:14;;;;;;;30.77;15.32;;;15.60;99.90;;;;;;4956705;28;20034;-87
2021/09/03 08:07:42;;;;;;;26.15;12.30;;;15.70;99.90;;;;;;4957360;28;20061;-85
2021/09/03 08:10:15;;;;;;;22.42;11.68;;;15.80;99.90;;;;;;5007804;28;20034;-87
2021/09/03 08:12:41;;;;;;;23.58;10.93;;;15.90;99.90;;;;;;4974782;28;20050;-86
2021/09/03 08:15:09;;;;;;;25.38;12.20;;;15.90;99.90;;;;;;4970360;28;20053;-85
2021/09/03 08:17:35;;;;;;;26.80;11.07;;;16.00;99.90;;;;;;4988116;28;20175;-87
2021/09/03 08:20:03;;;;;;;26.98;11.70;;;16.00;99.90;;;;;;4991610;28;20133;-87
2021/09/03 08:22:28;;;;;;;21.67;10.68;;;16.10;99.90;;;;;;4991610;28;20042;-88
2021/09/03 08:24:54;;;;;;;25.60;12.02;;;16.10;99.90;;;;;;4959974;28;20044;-86
2021/09/03 08:27:20;;;;;;;29.50;12.18;;;16.10;99.90;;;;;;4992471;28;20543;-87
2021/09/03 08:29:46;;;;;;;27.10;12.82;;;16.20;99.90;;;;;;4993322;28;20034;-86
2021/09/03 08:32:13;;;;;;;27.90;11.25;;;16.20;99.90;;;;;;4975356;28;20095;-86
2021/09/03 08:34:39;;;;;;;24.98;11.40;;;16.20;99.90;;;;;;4998479;28;20041;-87
2021/09/03 08:37:05;;;;;;;29.05;10.95;;;16.30;99.90;;;;;;4998463;28;20096;-87
2021/09/03 08:39:31;;;;;;;26.77;13.60;;;16.30;99.90;;;;;;4974983;28;20073;-87
2021/09/03 08:41:57;;;;;;;23.65;11.63;;;16.40;99.90;;;;;;4972253;28;20042;-88
2021/09/03 08:44:23;;;;;;;24.52;12.60;;;16.40;99.80;;;;;;4988825;28;20038;-86
2021/09/03 08:46:49;;;;;;;30.88;12.98;;;16.40;99.80;;;;;;5000641;28;20049;-87
2021/09/03 08:49:15;;;;;;;26.92;10.75;;;16.50;99.70;;;;;;4974813;28;20046;-88
2021/09/03 08:51:40;;;;;;;25.02;11.13;;;16.50;99.40;;;;;;4972032;28;20489;-90
2021/09/03 08:54:06;;;;;;;26.80;11.15;;;16.60;99.30;;;;;;4975896;28;20041;-87
2021/09/03 08:56:32;;;;;;;22.15;11.88;;;16.50;99.10;;;;;;4991050;28;20243;-88
2021/09/03 08:58:58;;;;;;;28.88;11.48;;;16.50;99.20;;;;;;4990490;28;20049;-86
2021/09/03 09:01:24;;;;;;;26.75;11.95;;;16.60;99.20;;;;;;4981314;28;20038;-89
2021/09/03 09:03:52;;;;;;;27.45;12.20;;;16.50;99.10;;;;;;4994893;28;20049;-90
2021/09/03 09:06:29;;;;;;;27.67;11.32;;;16.50;99.30;;;;;;4991388;28;20508;-87
2021/09/03 09:09:07;;;;;;;22.75;11.80;;;16.50;99.20;;;;;;4990189;28;20121;-89
2021/09/03 09:11:35;;;;;;;27.27;11.63;;;16.60;99.20;;;;;;4988072;28;20389;-89
2021/09/03 09:14:07;;;;;;;24.83;11.50;;;16.50;99.00;;;;;;4990976;28;20037;-89
2021/09/03 09:16:33;;;;;;;26.50;12.20;;;16.50;99.10;;;;;;4977805;28;20046;-90
2021/09/03 09:19:04;;;;;;;27.33;12.02;;;16.60;99.20;;;;;;4997690;28;20069;-87
2021/09/03 09:21:38;;;;;;;28.20;11.75;;;16.70;99.00;;;;;;4974646;28;20063;-87
2021/09/03 09:24:09;;;;;;;34.05;14.30;;;16.80;99.00;;;;;;4974570;28;20133;-88
2021/09/03 09:26:47;;;;;;;32.45;11.20;;;16.80;98.80;;;;;;4988482;28;20113;-88
2021/09/03 09:29:31;;;;;;;28.77;11.32;;;16.90;98.60;;;;;;4990377;28;20034;-85
2021/09/03 09:32:09;;;;;;;32.53;13.13;;;16.90;98.40;;;;;;4991342;28;20428;-87
2021/09/03 09:34:40;;;;;;;32.67;14.82;;;16.80;98.40;;;;;;5021713;28;20045;-86
2021/09/03 09:37:10;;;;;;;34.08;13.07;;;16.90;98.30;;;;;;4998515;28;20125;-86
2021/09/03 09:39:52;;;;;;;28.30;14.13;;;16.80;98.30;;;;;;4992076;28;20493;-87
2021/09/03 09:42:30;;;;;;;24.50;12.60;;;16.90;98.20;;;;;;4992144;28;20168;-87
2021/09/03 09:45:11;;;;;;;28.55;14.10;;;16.90;98.40;;;;;;4988003;28;20045;-87
2021/09/03 09:47:38;;;;;;;29.23;14.13;;;17.00;98.40;;;;;;4989154;28;20045;-87
2021/09/03 09:50:27;;;;;;;31.88;14.77;;;17.10;98.40;;;;;;4992240;28;20041;-87
2021/09/03 09:52:53;;;;;;;34.78;13.50;;;17.20;98.10;;;;;;4991831;28;20118;-86
2021/09/03 09:55:19;;;;;;;30.30;12.98;;;17.30;98.00;;;;;;4975398;28;20099;-87
2021/09/03 09:57:49;;;;;;;34.63;13.82;;;17.30;97.60;;;;;;5008085;28;20472;-86
2021/09/03 10:00:15;;;;;;;33.50;14.75;;;17.40;97.60;;;;;;5007272;28;20065;-85
2021/09/03 10:02:43;;;;;;;31.23;13.98;;;17.40;97.50;;;;;;4980108;28;20033;-86
2021/09/03 10:05:10;;;;;;;36.20;15.20;;;17.40;97.60;;;;;;4974267;28;20069;-87
2021/09/03 10:07:39;;;;;;;30.63;14.60;;;17.40;97.70;;;;;;5008095;28;20053;-85
2021/09/03 10:10:05;;;;;;;31.63;16.02;;;17.40;97.70;;;;;;5007976;28;20034;-86
2021/09/03 10:12:31;;;;;;;33.05;14.23;;;17.50;97.50;;;;;;4978023;28;20042;-86
2021/09/03 10:14:57;;;;;;;31.77;13.45;;;17.40;97.40;;;;;;4991320;28;20095;-88
2021/09/03 10:17:24;;;;;;;34.78;15.45;;;17.50;97.50;;;;;;4987196;28;20069;-91
2021/09/03 10:19:52;;;;;;;27.67;14.68;;;17.50;97.60;;;;;;4994736;28;20046;-87
2021/09/03 10:22:20;;;;;;;39.45;17.05;;;17.50;97.80;;;;;;4994555;28;20497;-86
2021/09/03 10:24:47;;;;;;;33.05;14.55;;;17.50;97.80;;;;;;4990635;28;20041;-88
2021/09/03 10:27:14;;;;;;;32.63;15.25;;;17.50;97.70;;;;;;4977419;28;20113;-87
2021/09/03 10:29:41;;;;;;;33.22;15.38;;;17.50;97.80;;;;;;4994783;28;20042;-85
2021/09/03 10:32:10;;;;;;;37.65;16.10;;;17.50;97.90;;;;;;5008229;28;20038;-87
2021/09/03 10:34:39;;;;;;;31.02;16.65;;;17.60;97.70;;;;;;4991104;28;20069;-87
2021/09/03 10:37:30;;;;;;;33.38;16.02;;;17.60;97.60;;;;;;5005713;28;20527;-86
2021/09/03 10:40:05;;;;;;;37.92;16.20;;;17.50;97.30;;;;;;4993714;28;20237;-87
2021/09/03 10:42:34;;;;;;;34.05;14.65;;;17.50;97.50;;;;;;5008232;28;20317;-87
2021/09/03 10:45:23;;;;;;;26.50;13.75;;;17.50;97.40;;;;;;5007693;28;20041;-90
2021/09/03 10:47:48;;;;;;;34.03;14.85;;;17.60;97.60;;;;;;4993326;28;20121;-86
2021/09/03 10:50:34;;;;;;;31.63;14.90;;;17.70;97.50;;;;;;4997325;28;20124;-87
2021/09/03 10:53:06;;;;;;;28.63;14.88;;;17.70;97.50;;;;;;5006361;28;20046;-87
2021/09/03 10:55:57;;;;;;;27.23;14.47;;;17.70;97.40;;;;;;5007880;28;20042;-86
2021/09/03 10:58:52;;;;;;;29.65;16.30;;;17.70;97.20;;;;;;5004563;28;20054;-86
2021/09/03 11:01:18;;;;;;;31.90;17.27;;;17.70;97.40;;;;;;5017637;28;20472;-87
2021/09/03 11:03:49;;;;;;;35.78;17.23;;;17.70;97.30;;;;;;4992081;28;20396;-85
2021/09/03 11:06:24;;;;;;;32.70;17.25;;;17.70;97.20;;;;;;4993165;28;20243;-84
2021/09/03 11:08:55;;;;;;;30.00;16.45;;;17.70;96.90;;;;;;4988139;28;20045;-86
2021/09/03 11:11:28;;;;;;;28.52;14.77;;;17.70;96.90;;;;;;4987590;28;20038;-87
2021/09/03 11:13:57;;;;;;;33.45;15.77;;;17.70;96.80;;;;;;4995987;28;20057;-85
2021/09/03 11:16:42;;;;;;;35.65;19.77;;;17.60;96.80;;;;;;5004055;28;20133;-87
2021/09/03 11:19:11;;;;;;;32.25;19.00;;;17.70;96.60;;;;;;4986878;28;20053;-85
2021/09/03 11:21:41;;;;;;;33.10;18.45;;;17.70;97.10;;;;;;4989108;28;20054;-84
2021/09/03 11:24:08;;;;;;;42.35;19.25;;;17.70;97.10;;;;;;5000569;28;20037;-86
2021/09/03 11:26:36;;;;;;;33.72;21.13;;;17.70;97.00;;;;;;5001341;28;20048;-83
2021/09/03 11:29:16;;;;;;;33.40;19.02;;;17.70;97.00;;;;;;4972020;28;20104;-87
2021/09/03 11:32:00;;;;;;;32.17;19.35;;;17.70;96.70;;;;;;5005242;28;20406;-87
2021/09/03 11:34:50;;;;;;;34.28;19.15;;;17.70;96.80;;;;;;5007386;28;20049;-87
2021/09/03 11:37:19;;;;;;;30.27;17.98;;;17.80;97.00;;;;;;4985890;28;20038;-87
2021/09/03 11:39:45;;;;;;;27.90;17.27;;;17.90;96.90;;;;;;4996253;28;20046;-87
2021/09/03 11:42:27;;;;;;;25.95;16.67;;;18.00;96.80;;;;;;4965463;28;20029;-86
2021/09/03 11:45:06;;;;;;;29.55;16.40;;;18.00;96.60;;;;;;4985976;28;20092;-86
2021/09/03 11:47:35;;;;;;;32.70;18.13;;;18.00;96.60;;;;;;4986366;28;20287;-87
2021/09/03 11:50:06;;;;;;;27.38;15.73;;;18.00;96.70;;;;;;5008719;28;20136;-84
2021/09/03 11:52:32;;;;;;;27.27;15.57;;;18.00;96.60;;;;;;5002128;28;20083;-84
2021/09/03 11:54:59;;;;;;;24.70;14.07;;;18.10;96.60;;;;;;4984823;28;20111;-84
2021/09/03 11:57:25;;;;;;;27.80;15.38;;;18.10;96.50;;;;;;5015941;28;20049;-84
2021/09/03 12:00:02;;;;;;;24.55;14.18;;;18.10;96.50;;;;;;4961836;28;20045;-85
2021/09/03 12:02:28;;;;;;;25.17;14.00;;;18.00;96.40;;;;;;5003799;28;20124;-85
2021/09/03 12:04:56;;;;;;;23.45;14.05;;;18.00;96.50;;;;;;4983077;28;20419;-86
2021/09/03 12:07:24;;;;;;;20.10;12.98;;;18.00;96.40;;;;;;4968856;28;20038;-83
2021/09/03 12:09:56;;;;;;;24.20;12.77;;;18.10;96.30;;;;;;4980509;28;20038;-83
2021/09/03 12:12:27;;;;;;;;;;;18.20;95.80;;;;;;4988203;28;20508;-84
2021/09/03 12:14:59;;;;;;;23.83;13.30;;;18.30;96.10;;;;;;4988367;28;19921;-85
2021/09/03 12:17:42;;;;;;;23.60;11.35;;;18.30;95.90;;;;;;4998431;28;20038;-85
2021/09/03 12:20:10;;;;;;;23.02;13.48;;;18.40;95.70;;;;;;4994107;28;20433;-85
2021/09/03 12:22:53;;;;;;;20.67;12.77;;;18.40;95.80;;;;;;4970437;28;20136;-85
2021/09/03 12:25:29;;;;;;;24.42;13.13;;;18.40;95.90;;;;;;4987089;28;20033;-85
2021/09/03 12:28:05;;;;;;;28.05;13.93;;;18.40;95.60;;;;;;4989743;28;20396;-86
2021/09/03 12:30:32;;;;;;;24.50;13.63;;;18.50;95.70;;;;;;5000237;28;20053;-85